Time;durP1;ratioP1;P1;durP2;ratioP2;P2;SDS_P1;SDS_P2;PMS_P1;PMS_P2;Temp;Humidity;BMP_temperature;BMP_pressure;BME280_temperature;BME280_humidity;BME280_pressure;Samples;Min_cycle;Max_cycle;Signal;HPM_P1;HPM_P2
2023/04/21 00:02:26;;;;;;;;;15.00;14.00;25.20;38.10;;;;;;109897;1252;49965;-63
2023/04/21 00:04:55;;;;;;;;;15.00;14.00;25.20;38.10;;;;;;109801;1252;49023;-63
2023/04/21 00:07:22;;;;;;;;;15.00;14.00;25.20;38.20;;;;;;109974;1252;47038;-63
2023/04/21 00:09:49;;;;;;;;;18.00;15.00;25.20;38.10;;;;;;109984;1254;56575;-65
2023/04/21 00:12:15;;;;;;;;;20.00;15.00;25.20;38.10;;;;;;109933;1257;54317;-64
2023/04/21 00:14:42;;;;;;;;;17.00;14.00;25.20;38.10;;;;;;109713;1252;49912;-64
2023/04/21 00:17:09;;;;;;;;;21.33;18.00;25.10;38.10;;;;;;109901;1252;49765;-65
2023/04/21 00:19:36;;;;;;;;;18.67;17.67;25.10;38.00;;;;;;109956;1252;45957;-63
2023/04/21 00:22:07;;;;;;;;;18.00;15.00;25.10;38.00;;;;;;109900;1254;55484;-62
2023/04/21 00:24:34;;;;;;;;;14.00;13.00;25.10;38.00;;;;;;109722;1253;53787;-64
2023/04/21 00:27:02;;;;;;;;;23.00;19.00;25.10;38.10;;;;;;110020;1252;49941;-62
2023/04/21 00:29:29;;;;;;;;;18.00;14.00;25.10;38.00;;;;;;109937;1252;50343;-65
2023/04/21 00:31:56;;;;;;;;;15.33;14.00;25.10;38.00;;;;;;109926;1255;45137;-63
2023/04/21 00:34:23;;;;;;;;;18.00;17.00;25.00;38.00;;;;;;109742;1252;55989;-64
2023/04/21 00:36:50;;;;;;;;;18.50;16.00;25.00;38.20;;;;;;109947;1252;54284;-61
2023/04/21 00:39:17;;;;;;;;;18.00;17.00;25.10;38.10;;;;;;109935;1252;48959;-60
2023/04/21 00:41:44;;;;;;;;;15.00;14.00;25.00;38.30;;;;;;110017;1256;48989;-61
2023/04/21 00:44:10;;;;;;;;;17.00;15.00;25.00;38.10;;;;;;109733;1252;46150;-61
2023/04/21 00:46:37;;;;;;;;;23.00;18.00;25.00;38.10;;;;;;109957;1252;56278;-61
2023/04/21 00:49:05;;;;;;;;;19.00;16.00;25.00;38.10;;;;;;109901;1255;53804;-62
2023/04/21 00:51:34;;;;;;;;;20.00;17.00;25.00;38.40;;;;;;109950;1257;49936;-62
2023/04/21 00:54:03;;;;;;;;;19.00;17.00;25.00;38.20;;;;;;109748;1254;49384;-62
2023/04/21 00:56:31;;;;;;;;;20.00;19.00;25.00;38.40;;;;;;109970;1256;45990;-61
2023/04/21 00:58:59;;;;;;;;;16.00;15.00;25.00;38.20;;;;;;109858;1254;56565;-62
2023/04/21 01:01:28;;;;;;;;;18.00;15.00;25.00;38.20;;;;;;109966;1257;53301;-63
2023/04/21 01:03:59;;;;;;;;;17.00;16.00;25.00;38.80;;;;;;109740;1252;49317;-64
2023/04/21 01:06:33;;;;;;;;;18.50;16.00;25.00;38.20;;;;;;109926;1252;49767;-62
2023/04/21 01:09:01;;;;;;;;;17.50;16.00;25.00;38.20;;;;;;109922;1255;45629;-61
2023/04/21 01:11:28;;;;;;;;;17.00;15.00;25.00;38.20;;;;;;109888;1257;55351;-63
2023/04/21 01:13:54;;;;;;;;;17.50;15.00;25.00;38.20;;;;;;109810;1257;55131;-63
2023/04/21 01:16:22;;;;;;;;;21.00;17.00;25.00;38.20;;;;;;110100;1255;49864;-62
2023/04/21 01:18:52;;;;;;;;;19.33;16.67;25.00;38.40;;;;;;109792;1256;48889;-63
2023/04/21 01:21:20;;;;;;;;;17.50;16.00;25.10;38.20;;;;;;109943;1252;46080;-64
2023/04/21 01:23:47;;;;;;;;;21.50;17.00;25.00;38.70;;;;;;109981;1255;55876;-63
2023/04/21 01:26:18;;;;;;;;;21.00;16.50;25.00;38.40;;;;;;109930;1256;54320;-63
2023/04/21 01:28:46;;;;;;;;;18.00;17.00;25.00;38.10;;;;;;109869;1253;50712;-63
2023/04/21 01:31:17;;;;;;;;;16.00;15.00;25.00;38.10;;;;;;109852;1258;50745;-62
2023/04/21 01:33:44;;;;;;;;;18.00;16.00;25.00;38.10;;;;;;109846;1256;46913;-61
2023/04/21 01:36:11;;;;;;;;;27.00;18.00;25.00;38.10;;;;;;109867;1256;55547;-65
2023/04/21 01:38:41;;;;;;;;;18.67;16.00;25.00;38.10;;;;;;109989;1256;54633;-65
2023/04/21 01:41:09;;;;;;;;;18.00;17.00;25.00;38.10;;;;;;109976;1252;49803;-62
2023/04/21 01:43:37;;;;;;;;;18.00;17.00;25.00;38.10;;;;;;109856;1252;50237;-63
2023/04/21 01:46:05;;;;;;;;;18.50;15.50;25.00;38.10;;;;;;109850;1251;46411;-64
2023/04/21 01:48:31;;;;;;;;;15.00;14.00;25.00;38.10;;;;;;109928;1252;55451;-64
2023/04/21 01:50:58;;;;;;;;;20.00;16.50;25.00;38.10;;;;;;109945;1252;54524;-63
2023/04/21 01:53:25;;;;;;;;;16.00;15.00;25.00;38.10;;;;;;109920;1252;49766;-62
2023/04/21 01:55:52;;;;;;;;;19.00;16.00;25.00;38.40;;;;;;110267;1257;49166;-63
2023/04/21 01:58:20;;;;;;;;;21.00;16.00;25.00;38.10;;;;;;109907;1257;45722;-63
2023/04/21 02:00:47;;;;;;;;;18.00;17.00;25.00;38.30;;;;;;109899;1257;56028;-62
2023/04/21 02:03:14;;;;;;;;;22.50;20.00;25.00;38.10;;;;;;109900;1252;54245;-61
2023/04/21 02:05:41;;;;;;;;;20.00;16.00;25.00;38.10;;;;;;109728;1256;51143;-62
2023/04/21 02:08:08;;;;;;;;;18.50;17.50;25.00;38.00;;;;;;109884;1254;49516;-64
2023/04/21 02:10:35;;;;;;;;;17.00;16.00;25.00;38.00;;;;;;109948;1252;46066;-63
2023/04/21 02:13:02;;;;;;;;;23.33;19.00;25.00;38.00;;;;;;109841;1257;55139;-63
2023/04/21 02:15:29;;;;;;;;;20.00;16.00;24.90;37.90;;;;;;109678;1252;54256;-63
2023/04/21 02:17:56;;;;;;;;;18.00;17.00;24.90;38.00;;;;;;109921;1252;49195;-64
2023/04/21 02:20:23;;;;;;;;;20.00;17.00;24.90;38.10;;;;;;109925;1257;49621;-64
2023/04/21 02:22:50;;;;;;;;;19.00;15.00;24.90;37.90;;;;;;109986;1257;45733;-64
2023/04/21 02:25:17;;;;;;;;;19.00;17.00;24.90;37.90;;;;;;109758;1257;55840;-63
2023/04/21 02:27:44;;;;;;;;;16.00;15.00;24.90;37.90;;;;;;109958;1257;54205;-64
2023/04/21 02:30:11;;;;;;;;;19.50;18.50;24.90;37.90;;;;;;110201;1252;49993;-65
2023/04/21 02:32:38;;;;;;;;;17.00;15.00;24.90;37.80;;;;;;109983;1254;48853;-67
2023/04/21 02:35:06;;;;;;;;;18.00;15.50;24.90;37.80;;;;;;109841;1258;45259;-63
2023/04/21 02:37:33;;;;;;;;;16.00;15.00;24.90;37.80;;;;;;110063;1252;56755;-64
2023/04/21 02:40:00;;;;;;;;;21.00;17.00;24.90;37.70;;;;;;109966;1257;53745;-65
2023/04/21 02:42:27;;;;;;;;;20.50;18.00;24.80;37.60;;;;;;109967;1256;50123;-64
2023/04/21 02:44:54;;;;;;;;;18.00;16.00;24.80;37.60;;;;;;109692;1252;50026;-64
2023/04/21 02:47:21;;;;;;;;;21.00;16.67;24.80;37.20;;;;;;109934;1252;45415;-64
2023/04/21 02:49:47;;;;;;;;;22.33;20.33;24.80;37.80;;;;;;109953;1252;55641;-63
2023/04/21 02:52:14;;;;;;;;;21.50;18.00;24.80;37.80;;;;;;109930;1252;53724;-64
2023/04/21 02:54:42;;;;;;;;;21.00;17.00;24.80;37.80;;;;;;109792;1252;49182;-63
2023/04/21 02:57:09;;;;;;;;;19.00;18.00;24.80;37.60;;;;;;109916;1252;49772;-63
2023/04/21 02:59:36;;;;;;;;;18.00;15.00;24.80;37.50;;;;;;109937;1257;46125;-62
2023/04/21 03:02:02;;;;;;;;;19.00;18.00;24.80;37.50;;;;;;109953;1252;55926;-63
2023/04/21 03:04:31;;;;;;;;;16.00;15.00;24.70;37.60;;;;;;109793;1254;54365;-62
2023/04/21 03:06:58;;;;;;;;;18.50;16.50;24.70;37.50;;;;;;109966;1253;49852;-61
2023/04/21 03:09:25;;;;;;;;;17.00;14.00;24.70;37.40;;;;;;109923;1252;49838;-63
2023/04/21 03:11:52;;;;;;;;;19.00;16.00;24.70;37.40;;;;;;109984;1252;45452;-62
2023/04/21 03:14:19;;;;;;;;;18.00;15.50;24.70;38.00;;;;;;109821;1255;55617;-62
2023/04/21 03:16:46;;;;;;;;;16.00;15.00;24.70;37.50;;;;;;109953;1257;54137;-63
2023/04/21 03:19:13;;;;;;;;;18.00;15.50;24.70;37.60;;;;;;109942;1255;50452;-62
2023/04/21 03:21:40;;;;;;;;;19.00;17.00;24.70;37.40;;;;;;109933;1257;49851;-62
2023/04/21 03:24:07;;;;;;;;;18.00;16.50;24.70;37.50;;;;;;109831;1252;45568;-61
2023/04/21 03:26:34;;;;;;;;;20.00;17.50;24.70;37.50;;;;;;109937;1257;56802;-62
2023/04/21 03:29:01;;;;;;;;;17.50;16.50;24.70;37.50;;;;;;109897;1257;54098;-61
2023/04/21 03:31:28;;;;;;;;;19.00;18.00;24.70;37.50;;;;;;109928;1257;49776;-62
2023/04/21 03:33:55;;;;;;;;;19.00;18.00;24.60;37.30;;;;;;109758;1257;49199;-63
2023/04/21 03:36:22;;;;;;;;;19.00;16.33;24.60;37.60;;;;;;109955;1252;45420;-63
2023/04/21 03:38:49;;;;;;;;;22.00;17.00;24.60;37.60;;;;;;110044;1252;56595;-68
2023/04/21 03:41:16;;;;;;;;;17.00;14.00;24.60;38.30;;;;;;110103;1253;54138;-63
2023/04/21 03:43:43;;;;;;;;;19.00;16.50;24.70;37.90;;;;;;109950;1256;49378;-63
2023/04/21 03:46:20;;;;;;;;;18.00;15.50;24.70;38.30;;;;;;109867;1255;49645;-64
2023/04/21 03:48:47;;;;;;;;;22.50;18.00;24.80;38.40;;;;;;110123;1252;46961;-66
2023/04/21 03:51:14;;;;;;;;;18.00;17.00;24.80;38.20;;;;;;109963;1256;56049;-67
2023/04/21 03:53:42;;;;;;;;;20.00;18.00;24.80;37.90;;;;;;109958;1252;53722;-66
2023/04/21 03:56:09;;;;;;;;;19.50;17.00;24.80;37.30;;;;;;110141;1252;49295;-64
2023/04/21 03:58:36;;;;;;;;;18.67;16.67;24.70;36.30;;;;;;110063;1258;49389;-65
2023/04/21 04:01:06;;;;;;;;;18.00;17.00;24.70;36.80;;;;;;109959;1252;46524;-65
2023/04/21 04:03:33;;;;;;;;;16.00;14.50;24.70;37.30;;;;;;109934;1257;56170;-65
2023/04/21 04:06:02;;;;;;;;;22.00;19.00;24.60;37.30;;;;;;110229;1253;54037;-63
2023/04/21 04:08:30;;;;;;;;;22.00;19.00;24.70;37.40;;;;;;109965;1254;49475;-64
2023/04/21 04:10:57;;;;;;;;;19.00;18.00;24.70;36.60;;;;;;109946;1252;49024;-62
2023/04/21 04:13:25;;;;;;;;;17.50;15.00;24.70;36.60;;;;;;109992;1255;46134;-62
2023/04/21 04:15:52;;;;;;;;;22.50;18.00;24.70;35.80;;;;;;109992;1254;55625;-72
2023/04/21 04:18:19;;;;;;;;;20.00;19.00;24.70;35.70;;;;;;109970;1256;54845;-63
2023/04/21 04:20:47;;;;;;;;;26.00;20.50;24.70;35.60;;;;;;109971;1257;49481;-62
2023/04/21 04:23:14;;;;;;;;;22.00;18.00;24.70;35.70;;;;;;110052;1257;49212;-62
2023/04/21 04:25:41;;;;;;;;;26.00;19.00;24.60;35.60;;;;;;110071;1252;45481;-62
2023/04/21 04:28:09;;;;;;;;;18.00;16.00;24.60;35.70;;;;;;109970;1257;55783;-67
2023/04/21 04:30:36;;;;;;;;;19.50;18.00;24.50;35.70;;;;;;110055;1254;53439;-64
2023/04/21 04:33:03;;;;;;;;;23.00;18.00;24.50;36.30;;;;;;109929;1252;49025;-63
2023/04/21 04:35:31;;;;;;;;;17.50;16.50;24.50;37.40;;;;;;110073;1252;49132;-63
2023/04/21 04:37:58;;;;;;;;;17.00;14.00;24.60;38.50;;;;;;109969;1257;45756;-63
2023/04/21 04:40:24;;;;;;;;;23.00;16.00;24.60;38.50;;;;;;109924;1257;55641;-63
2023/04/21 04:42:51;;;;;;;;;25.33;22.33;24.70;39.20;;;;;;109991;1257;54755;-64
2023/04/21 04:45:20;;;;;;;;;29.33;22.67;24.60;39.90;;;;;;110009;1257;49872;-64
2023/04/21 04:47:50;;;;;;;;;33.50;23.00;24.70;39.60;;;;;;109897;1258;49011;-64
2023/04/21 04:50:17;;;;;;;;;24.67;18.67;24.70;39.30;;;;;;109481;1255;626658;-66
2023/04/21 04:52:45;;;;;;;;;22.00;20.67;24.80;39.10;;;;;;109977;1254;56091;-64
2023/04/21 04:55:13;;;;;;;;;28.00;23.00;24.80;38.90;;;;;;110067;1257;54027;-64
2023/04/21 04:57:40;;;;;;;;;25.50;19.50;24.80;38.80;;;;;;109941;1252;49360;-62
2023/04/21 05:00:13;;;;;;;;;25.00;19.50;24.80;38.90;;;;;;109980;1253;50215;-64
2023/04/21 05:02:40;;;;;;;;;26.50;19.50;24.80;39.20;;;;;;109984;1256;45119;-63
2023/04/21 05:05:07;;;;;;;;;26.00;20.00;24.90;38.60;;;;;;110076;1257;56465;-64
2023/04/21 05:07:34;;;;;;;;;25.00;19.00;24.80;38.50;;;;;;110069;1257;54267;-64
2023/04/21 05:10:03;;;;;;;;;30.00;19.00;24.90;38.60;;;;;;110031;1252;49734;-65
2023/04/21 05:12:33;;;;;;;;;22.00;19.00;24.90;38.60;;;;;;109968;1257;52038;-73
2023/04/21 05:14:59;;;;;;;;;26.00;20.00;24.90;38.40;;;;;;110060;1256;45749;-75
2023/04/21 05:17:27;;;;;;;;;23.50;20.00;24.90;38.30;;;;;;110103;1256;56652;-69
2023/04/21 05:19:54;;;;;;;;;24.00;20.00;24.90;38.40;;;;;;109996;1253;53486;-70
2023/04/21 05:22:23;;;;;;;;;23.50;18.50;24.90;38.30;;;;;;110127;1257;49038;-69
2023/04/21 05:24:51;;;;;;;;;25.00;21.00;24.90;38.20;;;;;;110421;1256;49353;-66
2023/04/21 05:27:18;;;;;;;;;28.25;20.75;24.90;38.30;;;;;;110119;1252;45734;-69
2023/04/21 05:29:45;;;;;;;;;26.00;21.00;24.90;38.10;;;;;;110118;1257;56518;-69
2023/04/21 05:32:12;;;;;;;;;24.50;21.00;24.90;38.20;;;;;;110067;1252;53773;-69
2023/04/21 05:34:39;;;;;;;;;29.00;21.00;24.90;38.30;;;;;;110394;1257;50607;-72
2023/04/21 05:37:06;;;;;;;;;21.50;20.00;24.90;38.00;;;;;;110056;1252;49366;-75
2023/04/21 05:39:33;;;;;;;;;27.00;20.00;24.90;38.00;;;;;;110121;1252;45508;-75
2023/04/21 05:42:01;;;;;;;;;26.00;22.00;24.90;38.20;;;;;;110058;1252;55279;-69
2023/04/21 05:44:28;;;;;;;;;19.50;16.50;24.90;38.00;;;;;;110389;1252;53278;-78
2023/04/21 05:46:56;;;;;;;;;25.33;21.67;24.90;38.00;;;;;;110044;1252;50375;-75
2023/04/21 05:49:23;;;;;;;;;22.00;17.00;24.90;38.00;;;;;;110086;1252;49582;-70
2023/04/21 05:51:50;;;;;;;;;20.00;16.67;24.90;37.90;;;;;;110135;1254;45273;-71
2023/04/21 05:54:18;;;;;;;;;21.00;18.00;24.90;38.00;;;;;;110395;1252;55703;-72
2023/04/21 05:56:46;;;;;;;;;23.50;22.00;24.90;38.10;;;;;;110042;1252;53497;-72
2023/04/21 05:59:13;;;;;;;;;24.00;17.50;24.90;38.30;;;;;;110099;1252;49690;-76
2023/04/21 06:01:41;;;;;;;;;17.00;15.00;24.90;37.90;;;;;;110142;1255;48948;-72
2023/04/21 06:04:08;;;;;;;;;21.00;16.00;24.90;37.90;;;;;;110439;1254;46256;-73
2023/04/21 06:06:35;;;;;;;;;21.00;18.00;24.90;37.90;;;;;;110136;1254;55244;-68
2023/04/21 06:09:02;;;;;;;;;20.00;18.00;24.90;37.80;;;;;;110073;1252;53636;-73
2023/04/21 06:11:29;;;;;;;;;23.33;18.00;24.90;37.80;;;;;;110051;1254;49232;-69
2023/04/21 06:13:58;;;;;;;;;20.50;17.00;24.90;37.80;;;;;;110369;1252;50126;-68
2023/04/21 06:16:25;;;;;;;;;22.00;16.00;24.90;37.80;;;;;;110101;1252;45277;-67
2023/04/21 06:18:53;;;;;;;;;18.50;16.00;24.90;38.30;;;;;;110087;1256;56817;-68
2023/04/21 06:21:19;;;;;;;;;19.00;17.00;24.90;37.70;;;;;;110051;1257;53994;-68
2023/04/21 06:23:46;;;;;;;;;20.00;16.00;24.90;37.70;;;;;;110341;1252;49195;-69
2023/04/21 06:26:13;;;;;;;;;19.50;14.50;24.90;37.70;;;;;;110152;1257;49815;-69
2023/04/21 06:28:40;;;;;;;;;19.00;15.00;24.90;37.70;;;;;;110076;1256;45906;-69
2023/04/21 06:31:08;;;;;;;;;14.00;13.00;24.90;37.80;;;;;;110068;1252;56254;-69
2023/04/21 06:33:35;;;;;;;;;14.67;13.67;24.90;37.80;;;;;;110138;1257;53451;-68
2023/04/21 06:36:02;;;;;;;;;20.00;18.00;24.80;37.70;;;;;;110451;1256;49777;-69
2023/04/21 06:38:29;;;;;;;;;16.00;15.00;24.80;37.70;;;;;;110451;1254;49706;-68
2023/04/21 06:40:56;;;;;;;;;18.00;16.00;24.90;37.80;;;;;;110315;1254;46137;-69
2023/04/21 06:43:23;;;;;;;;;16.00;15.00;24.90;37.70;;;;;;110197;1256;55107;-69
2023/04/21 06:45:50;;;;;;;;;17.00;15.00;24.90;37.80;;;;;;110498;1254;53264;-71
2023/04/21 06:48:17;;;;;;;;;16.00;15.00;24.90;37.50;;;;;;110125;1257;49737;-69
2023/04/21 06:50:45;;;;;;;;;18.00;16.00;25.00;37.50;;;;;;110054;1254;49066;-69
2023/04/21 06:53:13;;;;;;;;;;;25.00;37.50;;;;;;110038;1257;45349;-69
2023/04/21 06:55:41;;;;;;;;;19.00;15.50;25.00;37.50;;;;;;110387;1257;55833;-68
2023/04/21 06:58:08;;;;;;;;;20.00;16.00;25.00;37.60;;;;;;110105;1254;53593;-69
2023/04/21 07:00:35;;;;;;;;;22.00;19.00;25.00;37.70;;;;;;110049;1257;49569;-69
2023/04/21 07:03:02;;;;;;;;;19.50;16.50;25.00;37.50;;;;;;110169;1252;49552;-68
2023/04/21 07:05:29;;;;;;;;;15.25;14.25;25.00;37.70;;;;;;110381;1256;45576;-70
2023/04/21 07:07:58;;;;;;;;;16.00;15.00;25.00;37.80;;;;;;110053;1254;55947;-68
2023/04/21 07:10:26;;;;;;;;;16.50;15.00;25.00;38.10;;;;;;110066;1252;53342;-68
2023/04/21 07:12:54;;;;;;;;;16.50;14.50;25.10;38.20;;;;;;110113;1252;50106;-68
2023/04/21 07:15:21;;;;;;;;;17.00;14.00;25.10;38.00;;;;;;110329;1257;50534;-70
2023/04/21 07:17:48;;;;;;;;;18.00;16.00;25.10;37.90;;;;;;110113;1256;46213;-71
2023/04/21 07:20:17;;;;;;;;;15.67;14.33;25.10;37.80;;;;;;110096;1252;55522;-69
2023/04/21 07:22:44;;;;;;;;;17.00;14.00;25.10;37.70;;;;;;110040;1257;53270;-69
2023/04/21 07:25:11;;;;;;;;;19.25;16.25;25.10;37.70;;;;;;110426;1252;50684;-75
2023/04/21 07:27:38;;;;;;;;;14.00;13.00;25.10;38.00;;;;;;110212;1254;48738;-70
2023/04/21 07:30:06;;;;;;;;;16.33;14.00;25.20;37.80;;;;;;110245;1252;45699;-70
2023/04/21 07:32:33;;;;;;;;;15.00;14.00;25.20;38.00;;;;;;110303;1255;55697;-69
2023/04/21 07:35:01;;;;;;;;;14.33;13.33;25.20;38.10;;;;;;110371;1252;54522;-66
2023/04/21 07:37:28;;;;;;;;;19.00;15.00;25.30;38.00;;;;;;110125;1255;49941;-66
2023/04/21 07:39:55;;;;;;;;;13.00;12.00;25.30;37.90;;;;;;109939;1254;49656;-68
2023/04/21 07:42:22;;;;;;;;;15.00;13.00;25.30;37.90;;;;;;109948;1255;45977;-67
2023/04/21 07:44:49;;;;;;;;;16.50;15.50;25.30;38.20;;;;;;110496;1252;55741;-65
2023/04/21 07:47:16;;;;;;;;;16.00;15.00;25.30;38.10;;;;;;110078;1257;55389;-74
2023/04/21 07:49:43;;;;;;;;;15.00;14.00;25.30;38.10;;;;;;110077;1254;49806;-65
2023/04/21 07:52:10;;;;;;;;;19.00;14.00;25.30;38.20;;;;;;110201;1252;49109;-66
2023/04/21 07:54:37;;;;;;;;;16.00;14.50;25.30;38.30;;;;;;110106;1257;46083;-65
2023/04/21 07:57:06;;;;;;;;;16.33;13.67;25.20;38.30;;;;;;110076;1252;56222;-67
2023/04/21 07:59:33;;;;;;;;;18.50;16.50;25.20;38.20;;;;;;110115;1255;54120;-65
2023/04/21 08:02:00;;;;;;;;;15.00;13.00;25.20;38.20;;;;;;110103;1252;49444;-66
2023/04/21 08:04:27;;;;;;;;;15.50;13.00;25.20;38.50;;;;;;110114;1257;49800;-67
2023/04/21 08:06:54;;;;;;;;;18.00;15.00;25.20;38.40;;;;;;110122;1254;46135;-67
2023/04/21 08:09:21;;;;;;;;;16.00;14.50;25.20;38.40;;;;;;110104;1257;55415;-67
2023/04/21 08:11:48;;;;;;;;;17.00;14.00;25.20;38.40;;;;;;110142;1253;53740;-66
2023/04/21 08:14:18;;;;;;;;;15.00;14.00;25.30;38.40;;;;;;110253;1256;49255;-68
2023/04/21 08:16:45;;;;;;;;;16.00;12.00;25.30;38.50;;;;;;110165;1255;50368;-69
2023/04/21 08:19:12;;;;;;;;;14.00;13.00;25.30;38.30;;;;;;110203;1252;45201;-69
2023/04/21 08:21:39;;;;;;;;;19.00;14.00;25.40;38.20;;;;;;110183;1253;55092;-68
2023/04/21 08:24:06;;;;;;;;;14.00;13.00;25.50;38.20;;;;;;110468;1256;53566;-69
2023/04/21 08:26:34;;;;;;;;;16.00;13.00;25.50;38.10;;;;;;110075;1255;50535;-67
2023/04/21 08:29:01;;;;;;;;;16.00;15.00;25.50;38.00;;;;;;109972;1252;50459;-67
2023/04/21 08:31:28;;;;;;;;;16.50;13.50;25.60;38.00;;;;;;109989;1257;46523;-68
2023/04/21 08:33:55;;;;;;;;;14.00;13.00;25.60;38.00;;;;;;110412;1256;56361;-68
2023/04/21 08:36:22;;;;;;;;;14.00;13.00;25.60;37.90;;;;;;110136;1256;53075;-69
2023/04/21 08:38:49;;;;;;;;;16.50;13.50;25.60;38.10;;;;;;110189;1256;49118;-70
2023/04/21 08:41:16;;;;;;;;;15.50;14.50;25.70;38.10;;;;;;110127;1257;49541;-66
2023/04/21 08:43:43;;;;;;;;;13.00;12.00;25.70;37.90;;;;;;110302;1252;46556;-67
2023/04/21 08:46:11;;;;;;;;;17.00;15.00;25.70;37.90;;;;;;110129;1257;55916;-67
2023/04/21 08:48:38;;;;;;;;;14.50;13.50;25.70;37.80;;;;;;109839;1255;54731;-68
2023/04/21 08:51:09;;;;;;;;;12.50;12.00;25.70;37.80;;;;;;110024;1256;49127;-70
2023/04/21 08:53:36;;;;;;;;;18.00;15.00;25.70;37.80;;;;;;110045;1252;49982;-64
2023/04/21 08:56:04;;;;;;;;;23.00;15.75;25.60;37.80;;;;;;110024;1257;45780;-65
2023/04/21 08:58:31;;;;;;;;;15.00;13.00;25.60;37.20;;;;;;110073;1252;56184;-65
2023/04/21 09:00:58;;;;;;;;;14.00;13.00;25.50;36.70;;;;;;110129;1257;54830;-65
2023/04/21 09:03:26;;;;;;;;;16.00;14.50;25.50;36.40;;;;;;110070;1252;50569;-64
2023/04/21 09:06:12;;;;;;;;;16.67;14.00;25.50;36.20;;;;;;110383;1252;49818;-64
2023/04/21 09:08:43;;;;;;;;;19.00;16.00;25.40;36.10;;;;;;110010;1255;45494;-64
2023/04/21 09:11:13;;;;;;;;;19.00;15.00;25.40;35.80;;;;;;109995;1252;56469;-65
2023/04/21 09:13:41;;;;;;;;;16.00;15.00;25.40;35.50;;;;;;110064;1252;53502;-65
2023/04/21 09:16:20;;;;;;;;;18.00;16.00;25.40;35.40;;;;;;110018;1256;50450;-65
2023/04/21 09:18:47;;;;;;;;;20.00;17.50;25.30;35.10;;;;;;110037;1252;50310;-66
2023/04/21 09:21:16;;;;;;;;;20.00;14.00;25.30;35.20;;;;;;109968;1257;45674;-65
2023/04/21 09:23:48;;;;;;;;;21.67;17.00;25.30;35.10;;;;;;110076;1256;56803;-64
2023/04/21 09:26:16;;;;;;;;;17.50;15.50;25.20;35.10;;;;;;109981;1252;54454;-66
2023/04/21 09:28:45;;;;;;;;;16.50;15.00;25.20;35.00;;;;;;110096;1252;49983;-64
2023/04/21 09:31:15;;;;;;;;;18.00;17.00;25.20;34.70;;;;;;110054;1257;50645;-66
2023/04/21 09:33:50;;;;;;;;;16.00;13.00;25.20;34.80;;;;;;110062;1252;45430;-65
2023/04/21 09:36:22;;;;;;;;;18.33;15.33;25.20;34.70;;;;;;110023;1256;55706;-66
2023/04/21 09:38:56;;;;;;;;;17.00;15.00;25.20;34.50;;;;;;109976;1252;53940;-65
2023/04/21 09:41:24;;;;;;;;;19.33;16.67;25.20;34.50;;;;;;110054;1256;50307;-65
2023/04/21 09:43:52;;;;;;;;;15.00;14.00;25.20;34.40;;;;;;110072;1252;49598;-64
2023/04/21 09:46:20;;;;;;;;;17.00;16.00;25.20;34.50;;;;;;110059;1252;46176;-64
2023/04/21 09:48:47;;;;;;;;;15.00;14.00;25.10;34.50;;;;;;109936;1254;55204;-65
2023/04/21 09:51:16;;;;;;;;;21.33;16.33;25.20;34.30;;;;;;110010;1256;53546;-65
2023/04/21 09:53:44;;;;;;;;;22.00;17.00;25.10;34.30;;;;;;110076;1257;48879;-65
2023/04/21 09:56:13;;;;;;;;;18.50;15.50;25.10;34.30;;;;;;109983;1257;49800;-65
2023/04/21 09:58:45;;;;;;;;;19.00;16.00;25.10;34.30;;;;;;110023;1254;46328;-65
2023/04/21 10:01:13;;;;;;;;;15.00;14.00;25.10;34.10;;;;;;110070;1256;55723;-65
2023/04/21 10:03:41;;;;;;;;;18.67;16.00;25.10;34.20;;;;;;109985;1257;54704;-66
2023/04/21 10:06:08;;;;;;;;;21.00;18.00;25.10;34.00;;;;;;109920;1257;49615;-65
2023/04/21 10:08:35;;;;;;;;;21.50;18.50;25.10;34.50;;;;;;109943;1257;50413;-67
2023/04/21 10:11:03;;;;;;;;;16.00;15.50;25.10;34.20;;;;;;109988;1252;45725;-65
2023/04/21 10:13:30;;;;;;;;;18.00;15.00;25.10;34.40;;;;;;110097;1256;55855;-67
2023/04/21 10:16:02;;;;;;;;;17.00;16.00;25.10;34.30;;;;;;110326;1257;54144;-66
2023/04/21 10:18:30;;;;;;;;;20.00;19.00;25.20;34.50;;;;;;110047;1257;50366;-69
2023/04/21 10:21:08;;;;;;;;;16.00;15.00;25.20;34.80;;;;;;110086;1252;49070;-69
2023/04/21 10:23:41;;;;;;;;;23.00;19.00;25.20;35.30;;;;;;110161;1256;45948;-67
2023/04/21 10:26:21;;;;;;;;;17.00;13.67;25.30;35.30;;;;;;110066;1256;56063;-70
2023/04/21 10:29:03;;;;;;;;;17.00;15.00;25.40;35.60;;;;;;110134;1256;54660;-71
2023/04/21 10:31:35;;;;;;;;;20.00;17.00;25.50;35.50;;;;;;110130;1254;49189;-69
2023/04/21 10:34:07;;;;;;;;;19.00;18.00;25.50;35.50;;;;;;110397;1257;49567;-70
2023/04/21 10:36:44;;;;;;;;;19.67;17.67;25.50;35.60;;;;;;110053;1255;46163;-69
2023/04/21 10:39:43;;;;;;;;;16.50;15.00;25.50;35.80;;;;;;110106;1254;56543;-68
2023/04/21 10:42:23;;;;;;;;;18.50;17.00;25.60;35.90;;;;;;110115;1257;53049;-67
2023/04/21 10:44:52;;;;;;;;;21.67;19.33;25.60;35.90;;;;;;110265;1255;49139;-67
2023/04/21 10:47:37;;;;;;;;;16.33;15.00;25.60;36.10;;;;;;110436;1254;49239;-66
2023/04/21 10:50:19;;;;;;;;;20.00;17.00;25.60;35.90;;;;;;110238;1256;45522;-67
2023/04/21 10:52:58;;;;;;;;;20.67;18.67;25.60;36.00;;;;;;110091;1256;55532;-67
2023/04/21 10:55:27;;;;;;;;;18.67;16.00;25.50;36.20;;;;;;110566;1252;54459;-67
2023/04/21 10:57:54;;;;;;;;;20.00;18.00;25.50;36.00;;;;;;110212;1251;49772;-67
2023/04/21 11:00:23;;;;;;;;;17.00;14.00;25.50;36.20;;;;;;110066;1257;49200;-70
2023/04/21 11:02:57;;;;;;;;;16.00;15.00;25.50;36.10;;;;;;110014;1255;45246;-69
2023/04/21 11:05:39;;;;;;;;;17.00;16.00;25.50;36.10;;;;;;110081;1256;56047;-67
2023/04/21 11:08:14;;;;;;;;;20.50;17.00;25.50;36.10;;;;;;110008;1256;54186;-67
2023/04/21 11:10:51;;;;;;;;;18.00;15.00;25.50;36.00;;;;;;110003;1252;49802;-67
2023/04/21 11:13:22;;;;;;;;;16.00;15.00;25.50;36.00;;;;;;110002;1257;49632;-67
2023/04/21 11:15:59;;;;;;;;;17.50;16.50;25.50;36.00;;;;;;110087;1253;45759;-67
2023/04/21 11:18:38;;;;;;;;;17.67;16.67;25.50;36.10;;;;;;110074;1256;55605;-68
2023/04/21 11:21:12;;;;;;;;;17.00;16.00;25.50;36.20;;;;;;110160;1252;54939;-68
2023/04/21 11:23:41;;;;;;;;;19.00;16.00;25.60;36.20;;;;;;110227;1256;49950;-69
2023/04/21 11:26:08;;;;;;;;;22.00;17.00;25.60;36.20;;;;;;110214;1252;49459;-68
2023/04/21 11:28:40;;;;;;;;;18.00;15.00;25.70;36.30;;;;;;110073;1254;45243;-69
2023/04/21 11:31:07;;;;;;;;;21.50;18.00;25.70;36.00;;;;;;110147;1256;55890;-69
2023/04/21 11:33:36;;;;;;;;;18.00;17.00;25.70;36.00;;;;;;110216;1256;53852;-64
2023/04/21 11:36:07;;;;;;;;;21.50;15.00;25.80;36.10;;;;;;110052;1252;50573;-68
2023/04/21 11:38:39;;;;;;;;;15.50;14.50;25.90;36.10;;;;;;109969;1254;49347;-69
2023/04/21 11:41:08;;;;;;;;;17.00;16.00;25.90;36.00;;;;;;110081;1252;46740;-70
2023/04/21 11:43:36;;;;;;;;;18.50;17.50;25.90;35.90;;;;;;110051;1253;55886;-70
2023/04/21 11:46:25;;;;;;;;;20.50;16.25;25.90;35.90;;;;;;109986;1257;54758;-67
2023/04/21 11:49:03;;;;;;;;;21.00;15.00;25.90;36.00;;;;;;109896;1256;49562;-69
2023/04/21 11:51:36;;;;;;;;;20.00;18.00;25.90;36.30;;;;;;110033;1255;49520;-68
2023/04/21 11:54:12;;;;;;;;;21.00;17.00;25.80;35.80;;;;;;110154;1256;47041;-68
2023/04/21 11:56:41;;;;;;;;;16.00;14.00;25.80;35.90;;;;;;110152;1256;55941;-67
2023/04/21 11:59:10;;;;;;;;;16.00;14.00;25.80;35.80;;;;;;110089;1252;53351;-65
2023/04/21 12:01:49;;;;;;;;;18.00;17.00;25.80;35.90;;;;;;110156;1252;49892;-65
2023/04/21 12:04:20;;;;;;;;;18.50;16.00;25.80;35.90;;;;;;110459;1257;48871;-69
2023/04/21 12:07:01;;;;;;;;;21.33;17.00;25.90;36.00;;;;;;110061;1257;45957;-68
2023/04/21 12:09:29;;;;;;;;;19.00;17.00;25.90;35.90;;;;;;110053;1252;55976;-67
2023/04/21 12:11:57;;;;;;;;;17.00;15.00;25.90;35.80;;;;;;109922;1254;55160;-68
2023/04/21 12:14:25;;;;;;;;;16.33;15.33;25.90;35.90;;;;;;110030;1257;48995;-65
2023/04/21 12:16:55;;;;;;;;;20.00;18.00;25.90;35.90;;;;;;110012;1252;49711;-66
2023/04/21 12:19:39;;;;;;;;;15.00;14.00;25.90;36.10;;;;;;110042;1252;46387;-68
2023/04/21 12:22:07;;;;;;;;;20.75;19.50;25.90;35.90;;;;;;110021;1252;56192;-66
2023/04/21 12:24:37;;;;;;;;;19.33;17.00;25.90;35.90;;;;;;110139;1254;53908;-67
2023/04/21 12:27:05;;;;;;;;;17.00;16.00;25.90;36.10;;;;;;110269;1256;49180;-70